Time;durP1;ratioP1;P1;durP2;ratioP2;P2;SDS_P1;SDS_P2;PMS_P1;PMS_P2;Temp;Humidity;BMP_temperature;BMP_pressure;BME280_temperature;BME280_humidity;BME280_pressure;Samples;Min_cycle;Max_cycle;Signal;HPM_P1;HPM_P2
2020/12/19 00:01:49;;;;;;;;;;;18.70;95.50;;;;;;5112637;28;19919;-82
2020/12/19 00:04:15;;;;;;;;;;;18.60;95.70;;;;;;5113382;28;19960;-82
2020/12/19 00:06:45;;;;;;;;;;;18.60;95.60;;;;;;5109483;28;19912;-82
2020/12/19 00:09:12;;;;;;;;;;;18.50;95.90;;;;;;5111649;28;19959;-81
2020/12/19 00:11:42;;;;;;;;;;;18.50;96.10;;;;;;5113346;28;19918;-83
2020/12/19 00:14:10;;;;;;;;;;;18.50;96.30;;;;;;5112953;28;19965;-83
2020/12/19 00:16:36;;;;;;;;;;;18.40;96.40;;;;;;5099759;27;20387;-83
2020/12/19 00:19:05;;;;;;;;;;;18.30;96.80;;;;;;5115256;27;19918;-83
2020/12/19 00:21:33;;;;;;;;;;;18.40;96.40;;;;;;5112748;28;20427;-82
2020/12/19 00:24:00;;;;;;;;;;;18.50;97.00;;;;;;5112726;28;20275;-81
2020/12/19 00:26:33;;;;;;;;;;;18.50;96.50;;;;;;5112625;28;19911;-81
2020/12/19 00:28:59;;;;;;;;;;;18.50;96.10;;;;;;5111566;28;19912;-81
2020/12/19 00:31:26;;;;;;;;;;;18.60;96.00;;;;;;5112255;28;19919;-81
2020/12/19 00:33:53;;;;;;;;;;;18.70;95.50;;;;;;5112350;28;19920;-82
2020/12/19 00:36:20;;;;;;;;;;;18.70;94.70;;;;;;5113062;28;19919;-81
2020/12/19 00:38:46;;;;;;;;;;;18.80;95.40;;;;;;5112158;28;19915;-82
2020/12/19 00:41:17;;;;;;;;;;;18.80;94.30;;;;;;5112904;28;19912;-82
2020/12/19 00:43:43;;;;;;;;;;;18.90;94.70;;;;;;5112822;28;19919;-81
2020/12/19 00:46:11;;;;;;;;;;;18.90;94.60;;;;;;5113343;28;19998;-82
2020/12/19 00:48:38;;;;;;;;;;;19.00;94.00;;;;;;5111704;28;19984;-82
2020/12/19 00:51:05;;;;;;;;;;;19.00;93.90;;;;;;5108833;28;19931;-81
2020/12/19 00:53:31;;;;;;;;;;;19.20;94.10;;;;;;5112345;28;19916;-83
2020/12/19 00:55:58;;;;;;;;;;;19.20;93.60;;;;;;5122378;27;19918;-81
2020/12/19 00:58:25;;;;;;;;;;;19.30;93.30;;;;;;5126947;28;19955;-81
2020/12/19 01:00:51;;;;;;;;;;;19.40;93.00;;;;;;5123827;28;19915;-81
2020/12/19 01:03:18;;;;;;;;;;;19.30;94.40;;;;;;5111612;28;19947;-82
2020/12/19 01:05:45;;;;;;;;;;;19.20;95.20;;;;;;5113858;28;19911;-82
2020/12/19 01:08:12;;;;;;;;;;;19.10;95.40;;;;;;5113267;28;20342;-82
2020/12/19 01:10:38;;;;;;;;;;;19.00;95.40;;;;;;5112706;28;19989;-82
2020/12/19 01:13:05;;;;;;;;;;;18.80;95.90;;;;;;5113541;28;19919;-81
2020/12/19 01:15:32;;;;;;;;;;;18.90;96.10;;;;;;5112671;28;19935;-81
2020/12/19 01:17:59;;;;;;;;;;;18.90;95.70;;;;;;5113478;28;19908;-83
2020/12/19 01:20:25;;;;;;;;;;;18.80;95.40;;;;;;5113542;28;20020;-81
2020/12/19 01:22:52;;;;;;;;;;;18.80;96.10;;;;;;5110703;28;19914;-83
2020/12/19 01:25:19;;;;;;;;;;;18.70;96.50;;;;;;5110935;28;19912;-82
2020/12/19 01:27:45;;;;;;;;;;;18.80;96.30;;;;;;5111456;28;19911;-82
2020/12/19 01:30:12;;;;;;;;;;;18.60;96.60;;;;;;5112231;28;19918;-82
2020/12/19 01:32:39;;;;;;;;;;;18.60;97.10;;;;;;5111002;28;20002;-83
2020/12/19 01:35:05;;;;;;;;;;;18.60;96.80;;;;;;5112071;28;19989;-83
2020/12/19 01:37:32;;;;;;;;;;;18.60;97.00;;;;;;5112704;28;19908;-80
2020/12/19 01:39:59;;;;;;;;;;;18.60;96.40;;;;;;5110064;28;19929;-82
2020/12/19 01:42:26;;;;;;;;;;;18.50;96.80;;;;;;5109901;28;19907;-82
2020/12/19 01:44:55;;;;;;;;;;;18.50;97.00;;;;;;5106953;28;20300;-80
2020/12/19 01:47:22;;;;;;;;;;;18.50;97.00;;;;;;5105999;28;19993;-82
2020/12/19 01:49:49;;;;;;;;;;;18.50;97.30;;;;;;5105015;28;19951;-82
2020/12/19 01:52:19;;;;;;;;;;;18.50;97.40;;;;;;5101493;28;19923;-81
2020/12/19 01:54:46;;;;;;;;;;;18.50;97.80;;;;;;5107539;28;20366;-83
2020/12/19 01:57:14;;;;;;;;;;;18.60;97.30;;;;;;5112947;28;20380;-89
2020/12/19 01:59:40;;;;;;;;;;;18.60;96.80;;;;;;5113385;28;19919;-83
2020/12/19 02:02:08;;;;;;;;;;;18.60;96.60;;;;;;5115918;27;19922;-84
2020/12/19 02:04:35;;;;;;;;;;;18.70;96.90;;;;;;5116262;28;20317;-85
2020/12/19 02:07:02;;;;;;;;;;;18.70;96.30;;;;;;5116194;28;19919;-82
2020/12/19 02:09:30;;;;;;;;;;;18.60;96.60;;;;;;5114662;28;20000;-83
2020/12/19 02:11:57;;;;;;;;;;;18.70;96.60;;;;;;5116301;28;19914;-85
2020/12/19 02:14:24;;;;;;;;;;;18.70;96.70;;;;;;5115545;28;20002;-79
2020/12/19 02:16:53;;;;;;;;;;;18.70;96.90;;;;;;5115996;28;19908;-82
2020/12/19 02:19:20;;;;;;;;;;;18.60;96.80;;;;;;5115103;28;19948;-80
2020/12/19 02:21:47;;;;;;;;;;;18.60;96.50;;;;;;5115553;28;20314;-82
2020/12/19 02:24:13;;;;;;;;;;;18.60;96.90;;;;;;5115596;28;19947;-84
2020/12/19 02:26:40;;;;;;;;;;;18.60;96.50;;;;;;5115773;28;19908;-78
2020/12/19 02:29:07;;;;;;;;;;;18.50;97.20;;;;;;5115543;28;19934;-83
2020/12/19 02:31:35;;;;;;;;;;;18.50;97.90;;;;;;5115363;28;19908;-80
2020/12/19 02:34:01;;;;;;;;;;;18.40;97.90;;;;;;5115216;28;19959;-81
2020/12/19 02:36:28;;;;;;;;;;;18.50;97.80;;;;;;5115535;28;19930;-81
2020/12/19 02:38:55;;;;;;;;;;;18.50;97.90;;;;;;5115674;28;19912;-81
2020/12/19 02:41:21;;;;;;;;;;;18.40;97.60;;;;;;5115226;28;20046;-83
2020/12/19 02:43:51;;;;;;;;;;;18.40;97.60;;;;;;5114351;28;19912;-82
2020/12/19 02:46:18;;;;;;;;;;;18.50;98.10;;;;;;5115699;28;20356;-83
2020/12/19 02:48:45;;;;;;;;;;;18.50;98.00;;;;;;5114999;28;19998;-83
2020/12/19 02:51:12;;;;;;;;;;;18.50;98.30;;;;;;5115120;28;19915;-82
2020/12/19 02:53:38;;;;;;;;;;;18.50;98.40;;;;;;5124089;27;20339;-83
2020/12/19 02:56:05;;;;;;;;;;;18.50;98.90;;;;;;5095358;28;19924;-85
2020/12/19 02:58:32;;;;;;;;;;;18.60;98.90;;;;;;5102748;28;20266;-87
2020/12/19 03:00:58;;;;;;;;;;;18.60;98.80;;;;;;5114878;28;20380;-86
2020/12/19 03:03:25;;;;;;;;;;;18.50;98.60;;;;;;5114856;28;20024;-87
2020/12/19 03:05:52;;;;;;;;;;;18.50;98.30;;;;;;5115009;28;19908;-85
2020/12/19 03:08:19;;;;;;;;;;;18.40;98.60;;;;;;5114578;28;19912;-84
2020/12/19 03:10:45;;;;;;;;;;;18.40;98.50;;;;;;5128602;27;19916;-86
2020/12/19 03:13:12;;;;;;;;;;;18.40;99.00;;;;;;5114249;27;19981;-84
2020/12/19 03:15:39;;;;;;;;;;;18.40;99.10;;;;;;5113382;28;19912;-87
2020/12/19 03:18:05;;;;;;;;;;;18.60;99.40;;;;;;5114776;28;19912;-88
2020/12/19 03:20:32;;;;;;;;;;;18.70;98.50;;;;;;5113692;28;19919;-85
2020/12/19 03:22:59;;;;;;;;;;;18.80;99.00;;;;;;5114070;28;19919;-87
2020/12/19 03:25:27;;;;;;;;;;;18.70;98.50;;;;;;5114491;28;19908;-87
2020/12/19 03:27:54;;;;;;;;;;;18.80;98.90;;;;;;5113894;28;19911;-87
2020/12/19 03:30:24;;;;;;;;;;;18.80;98.10;;;;;;5114567;28;19943;-88
2020/12/19 03:32:54;;;;;;;;;;;18.70;98.50;;;;;;5128563;27;19920;-85
2020/12/19 03:35:22;;;;;;;;;;;18.70;98.30;;;;;;5113180;28;19912;-87
2020/12/19 03:37:49;;;;;;;;;;;18.60;98.40;;;;;;5113713;28;19911;-86
2020/12/19 03:40:16;;;;;;;;;;;18.50;98.40;;;;;;5113906;28;19907;-86
2020/12/19 03:42:42;;;;;;;;;;;18.50;98.80;;;;;;5113258;28;19919;-85
2020/12/19 03:45:10;;;;;;;;;;;18.60;99.00;;;;;;5114034;28;19916;-85
2020/12/19 03:47:37;;;;;;;;;;;18.60;98.80;;;;;;5114266;28;19908;-85
2020/12/19 03:50:04;;;;;;;;;;;18.60;99.10;;;;;;5113681;28;19908;-84
2020/12/19 03:52:31;;;;;;;;;;;18.60;99.00;;;;;;5113977;28;20352;-84
2020/12/19 03:54:57;;;;;;;;;;;18.60;99.20;;;;;;5112750;28;19958;-82
2020/12/19 03:57:24;;;;;;;;;;;18.80;98.90;;;;;;5113116;28;20341;-84
2020/12/19 03:59:51;;;;;;;;;;;18.60;98.60;;;;;;5113989;28;20361;-85
2020/12/19 04:02:17;;;;;;;;;;;18.60;98.70;;;;;;5113273;28;19923;-82
2020/12/19 04:04:44;;;;;;;;;;;18.60;98.50;;;;;;5113834;27;19934;-86
2020/12/19 04:07:11;;;;;;;;;;;18.60;98.70;;;;;;5113543;28;19915;-85
2020/12/19 04:09:38;;;;;;;;;;;18.60;98.40;;;;;;5112264;28;19940;-82
2020/12/19 04:12:05;;;;;;;;;;;18.70;98.60;;;;;;5112824;28;19923;-85
2020/12/19 04:14:39;;;;;;;;;;;18.70;98.30;;;;;;5112322;28;20003;-86
2020/12/19 04:17:10;;;;;;;;;;;18.70;98.40;;;;;;5109109;28;20483;-86
2020/12/19 04:19:37;;;;;;;;;;;18.80;98.00;;;;;;5113988;28;19908;-87
2020/12/19 04:22:04;;;;;;;;;;;18.80;98.00;;;;;;5113438;28;19911;-86
2020/12/19 04:24:31;;;;;;;;;;;18.80;97.60;;;;;;5113325;28;19914;-82
2020/12/19 04:26:58;;;;;;;;;;;18.70;98.40;;;;;;5113123;28;19914;-82
2020/12/19 04:29:26;;;;;;;;;;;18.70;98.90;;;;;;5113235;28;19919;-84
2020/12/19 04:31:53;;;;;;;;;;;18.70;99.00;;;;;;5113153;27;19988;-85
2020/12/19 04:34:20;;;;;;;;;;;18.70;99.10;;;;;;5113748;28;20019;-86
2020/12/19 04:36:47;;;;;;;;;;;18.70;99.70;;;;;;5113140;28;19911;-87
2020/12/19 04:39:13;;;;;;;;;;;18.80;99.60;;;;;;5113391;28;19915;-87
2020/12/19 04:41:40;;;;;;;;;;;18.80;99.80;;;;;;5113031;28;20308;-87
2020/12/19 04:44:07;;;;;;;;;;;18.70;99.30;;;;;;5112217;28;19908;-86
2020/12/19 04:46:37;;;;;;;;;;;18.70;99.30;;;;;;5113319;28;19994;-87
2020/12/19 04:49:04;;;;;;;;;;;18.70;99.80;;;;;;5128994;27;19908;-88
2020/12/19 04:51:32;;;;;;;;;;;18.80;99.90;;;;;;5128991;27;19911;-87
2020/12/19 04:53:59;;;;;;;;;;;18.80;99.40;;;;;;5111259;28;19994;-87
2020/12/19 04:56:28;;;;;;;;;;;18.60;98.70;;;;;;5113117;28;19915;-87
2020/12/19 04:58:55;;;;;;;;;;;18.60;99.30;;;;;;5113071;28;19982;-87
2020/12/19 05:01:22;;;;;;;;;;;18.70;99.00;;;;;;5128800;27;19908;-88
2020/12/19 05:03:49;;;;;;;;;;;18.60;99.00;;;;;;5112579;28;19920;-87
2020/12/19 05:06:26;;;;;;;;;;;18.70;99.10;;;;;;5111777;28;20365;-88
2020/12/19 05:08:53;;;;;;;;;;;18.70;98.60;;;;;;5113394;28;19908;-88
2020/12/19 05:11:20;;;;;;;;;;;18.70;99.00;;;;;;5111804;28;20362;-87
2020/12/19 05:13:47;;;;;;;;;;;18.80;99.20;;;;;;5112149;28;19927;-87
2020/12/19 05:16:15;;;;;;;;;;;18.90;98.60;;;;;;5113012;28;19908;-87
2020/12/19 05:18:42;;;;;;;;;;;19.10;98.50;;;;;;5112944;28;19915;-87
2020/12/19 05:21:09;;;;;;;;;;;19.20;97.80;;;;;;5113180;28;19912;-88
2020/12/19 05:23:36;;;;;;;;;;;19.20;97.40;;;;;;5112622;28;19908;-87
2020/12/19 05:26:06;;;;;;;;;;;19.00;97.40;;;;;;5111987;28;19968;-87
2020/12/19 05:28:33;;;;;;;;;;;18.90;97.70;;;;;;5113039;28;19912;-87
2020/12/19 05:31:00;;;;;;;;;;;18.80;98.50;;;;;;5113311;28;19911;-86
2020/12/19 05:33:41;;;;;;;;;;;18.80;98.90;;;;;;5113906;28;19919;-86
2020/12/19 05:36:17;;;;;;;;;;;18.60;98.70;;;;;;5116063;28;20377;-86
2020/12/19 05:38:43;;;;;;;;;;;18.60;99.60;;;;;;5116842;28;20326;-86
2020/12/19 05:41:14;;;;;;;;;;;18.50;99.40;;;;;;5116610;28;19907;-86
2020/12/19 05:43:48;;;;;;;;;;;18.60;99.50;;;;;;5116443;28;20353;-86
2020/12/19 05:46:27;;;;;;;;;;;18.60;99.40;;;;;;5114833;28;19967;-86
2020/12/19 05:48:55;;;;;;;;;;;18.60;98.90;;;;;;5106264;28;19987;-85
2020/12/19 05:51:22;;;;;;;;;;;18.60;98.80;;;;;;5116514;28;19999;-85
2020/12/19 05:53:51;;;;;;;;;;;18.60;99.00;;;;;;5115221;28;20578;-84
2020/12/19 05:56:19;;;;;;;;;;;18.70;99.50;;;;;;5114119;28;19908;-84
2020/12/19 05:58:46;;;;;;;;;;;18.70;99.40;;;;;;5115362;28;19916;-85
2020/12/19 06:01:15;;;;;;;;;;;18.70;99.10;;;;;;5114136;28;19935;-83
2020/12/19 06:03:46;;;;;;;;;;;18.70;99.40;;;;;;5114832;28;20342;-83
2020/12/19 06:06:16;;;;;;;;;;;18.70;99.40;;;;;;5115837;28;19919;-84
2020/12/19 06:08:43;;;;;;;;;;;18.80;99.40;;;;;;5115598;28;20267;-83
2020/12/19 06:11:14;;;;;;;;;;;18.80;99.50;;;;;;5114221;28;19911;-83
2020/12/19 06:13:45;;;;;;;;;;;18.90;98.70;;;;;;5114761;28;20361;-84
2020/12/19 06:16:11;;;;;;;;;;;18.90;99.00;;;;;;5114784;28;20007;-83
2020/12/19 06:18:50;;;;;;;;;;;18.80;99.10;;;;;;5114637;28;20026;-82
2020/12/19 06:21:17;;;;;;;;;;;18.80;98.10;;;;;;5111693;28;20008;-84
2020/12/19 06:23:44;;;;;;;;;;;18.70;98.40;;;;;;5114837;28;20004;-83
2020/12/19 06:26:12;;;;;;;;;;;18.60;98.50;;;;;;5129031;27;19907;-87
2020/12/19 06:28:41;;;;;;;;;;;18.60;98.40;;;;;;5125509;27;20386;-82
2020/12/19 06:31:08;;;;;;;;;;;18.70;98.50;;;;;;5115695;28;19911;-83
2020/12/19 06:33:35;;;;;;;;;;;18.70;98.40;;;;;;5115484;28;19919;-83
2020/12/19 06:36:16;;;;;;;;;;;18.70;98.30;;;;;;5113903;28;19912;-82
2020/12/19 06:38:43;;;;;;;;;;;18.80;98.30;;;;;;5109317;28;19916;-81
2020/12/19 06:41:10;;;;;;;;;;;18.80;98.10;;;;;;5112727;27;19912;-82
2020/12/19 06:43:37;;;;;;;;;;;18.80;97.50;;;;;;5113998;28;19994;-81
2020/12/19 06:46:03;;;;;;;;;;;18.80;98.00;;;;;;5113073;28;19908;-81
2020/12/19 06:48:32;;;;;;;;;;;18.80;98.90;;;;;;5104777;28;19908;-81
2020/12/19 06:51:01;;;;;;;;;;;18.80;99.20;;;;;;5113271;28;19912;-82
2020/12/19 06:53:29;;;;;;;;;;;18.80;99.70;;;;;;5111122;28;20327;-82
2020/12/19 06:55:57;;;;;;;;;;;18.80;99.90;;;;;;5113646;28;20064;-83
2020/12/19 06:58:27;;;;;;;;;;;18.90;99.90;;;;;;5113384;28;19969;-83
2020/12/19 07:00:54;;;;;;;;;;;18.70;99.60;;;;;;5110987;28;19969;-82
2020/12/19 07:03:36;;;;;;;;;;;18.80;99.90;;;;;;5112459;28;20010;-82
2020/12/19 07:06:13;;;;;;;;;;;18.80;99.60;;;;;;5112789;28;19922;-82
2020/12/19 07:08:40;;;;;;;;;;;18.80;99.80;;;;;;5112277;28;20374;-81
2020/12/19 07:11:25;;;;;;;;;;;18.80;99.80;;;;;;5112716;28;19911;-83
2020/12/19 07:13:52;;;;;;;;;;;18.80;99.90;;;;;;5112391;28;19999;-82
2020/12/19 07:16:37;;;;;;;;;;;18.70;99.90;;;;;;5112743;28;19908;-83
2020/12/19 07:19:30;;;;;;;;;;;18.60;99.60;;;;;;5110769;28;19912;-81
2020/12/19 07:21:57;;;;;;;;;;;18.40;99.80;;;;;;5111110;27;19995;-82
2020/12/19 07:24:24;;;;;;;;;;;18.30;99.90;;;;;;5108907;27;20011;-82
2020/12/19 07:26:52;;;;;;;;;;;18.30;99.90;;;;;;5111899;28;19957;-81
2020/12/19 07:29:20;;;;;;;;;;;18.30;99.90;;;;;;5112270;28;20281;-81
2020/12/19 07:32:01;;;;;;;;;;;18.30;99.90;;;;;;5112296;28;19931;-80
2020/12/19 07:34:31;;;;;;;;;;;18.30;99.90;;;;;;5112358;28;20018;-80
2020/12/19 07:36:58;;;;;;;;;;;18.30;99.90;;;;;;5111472;28;20018;-82
2020/12/19 07:39:25;;;;;;;;;;;18.40;99.90;;;;;;5112084;28;20019;-81
2020/12/19 07:42:08;;;;;;;;;;;18.40;99.90;;;;;;5112354;28;19926;-80
2020/12/19 07:44:36;;;;;;;;;;;18.40;99.90;;;;;;5111352;28;19924;-81
2020/12/19 07:47:06;;;;;;;;;;;18.40;99.90;;;;;;5091871;28;20003;-81
2020/12/19 07:49:37;;;;;;;;;;;18.30;99.90;;;;;;5107007;28;19912;-81
2020/12/19 07:52:11;;;;;;;;;;;18.30;99.90;;;;;;5111413;28;20416;-82
2020/12/19 07:54:38;;;;;;;;;;;18.40;99.90;;;;;;5111474;28;20388;-81
2020/12/19 07:57:06;;;;;;;;;;;18.40;99.90;;;;;;5110731;27;19920;-81
2020/12/19 07:59:33;;;;;;;;;;;18.50;99.90;;;;;;5115030;27;19916;-80
2020/12/19 08:02:03;;;;;;;;;;;18.40;99.90;;;;;;5111641;28;19920;-81
2020/12/19 08:04:31;;;;;;;;;;;18.40;99.90;;;;;;5112281;28;19919;-82
2020/12/19 08:06:58;;;;;;;;;;;18.50;99.90;;;;;;5113480;28;19915;-81
2020/12/19 08:09:25;;;;;;;;;;;18.50;99.90;;;;;;5113297;28;19920;-80
2020/12/19 08:11:53;;;;;;;;;;;18.50;99.90;;;;;;5113828;28;19912;-80
2020/12/19 08:14:20;;;;;;;;;;;18.50;99.90;;;;;;5113346;28;19916;-81
2020/12/19 08:16:48;;;;;;;;;;;18.40;99.90;;;;;;5113797;28;19908;-80
2020/12/19 08:19:20;;;;;;;;;;;18.40;99.90;;;;;;5113505;28;20095;-81
2020/12/19 08:21:47;;;;;;;;;;;18.40;99.90;;;;;;5112981;28;19915;-82
2020/12/19 08:24:14;;;;;;;;;;;18.40;99.90;;;;;;5113245;28;19919;-80
2020/12/19 08:26:41;;;;;;;;;;;18.50;99.90;;;;;;5125574;27;19912;-79
2020/12/19 08:29:09;;;;;;;;;;;18.50;99.90;;;;;;5112849;28;19916;-81
2020/12/19 08:31:37;;;;;;;;;;;18.60;99.90;;;;;;5112628;28;19912;-81
2020/12/19 08:34:04;;;;;;;;;;;18.60;99.30;;;;;;5112701;28;20382;-81
2020/12/19 08:36:32;;;;;;;;;;;18.50;99.70;;;;;;5112479;28;19970;-81
2020/12/19 08:39:18;;;;;;;;;;;18.50;99.80;;;;;;5115674;27;19912;-82
2020/12/19 08:41:45;;;;;;;;;;;18.50;99.90;;;;;;5113167;27;19916;-82
2020/12/19 08:44:22;;;;;;;;;;;18.40;99.90;;;;;;5113081;28;19908;-81
2020/12/19 08:47:04;;;;;;;;;;;18.50;99.90;;;;;;5112411;28;19919;-81
2020/12/19 08:49:31;;;;;;;;;;;18.50;99.80;;;;;;5112569;28;20338;-82
2020/12/19 08:51:58;;;;;;;;;;;18.40;99.80;;;;;;5111347;28;19970;-81
2020/12/19 08:54:26;;;;;;;;;;;18.40;99.90;;;;;;5111370;28;19931;-81
2020/12/19 08:56:53;;;;;;;;;;;18.30;99.90;;;;;;5112494;28;20007;-82
2020/12/19 08:59:26;;;;;;;;;;;18.30;99.90;;;;;;5113122;28;19911;-81
2020/12/19 09:01:57;;;;;;;;;;;18.30;99.90;;;;;;5112652;28;20274;-80
2020/12/19 09:04:24;;;;;;;;;;;18.30;99.90;;;;;;5110971;28;20003;-80
2020/12/19 09:06:54;;;;;;;;;;;18.30;99.90;;;;;;5111742;28;19972;-80
2020/12/19 09:09:30;;;;;;;;;;;18.30;99.90;;;;;;5113010;28;19911;-79
2020/12/19 09:12:09;;;;;;;;;;;18.30;99.90;;;;;;5115334;28;20322;-80
2020/12/19 09:14:36;;;;;;;;;;;18.40;99.90;;;;;;5115484;28;19920;-80
2020/12/19 09:17:03;;;;;;;;;;;18.50;99.50;;;;;;5115779;28;20006;-80
2020/12/19 09:19:29;;;;;;;;;;;18.50;99.70;;;;;;5116919;28;19908;-80
2020/12/19 09:21:57;;;;;;;;;;;18.40;99.50;;;;;;5108109;28;19912;-78
2020/12/19 09:24:24;;;;;;;;;;;18.50;99.50;;;;;;5097318;28;19908;-81
2020/12/19 09:26:51;;;;;;;;;;;18.60;99.70;;;;;;5105053;28;19912;-80
2020/12/19 09:29:18;;;;;;;;;;;18.50;99.70;;;;;;5117067;28;19915;-80
2020/12/19 09:31:45;;;;;;;;;;;18.50;99.60;;;;;;5116614;28;19955;-81
2020/12/19 09:34:11;;;;;;;;;;;18.40;99.50;;;;;;5115809;28;19926;-80
2020/12/19 09:36:38;;;;;;;;;;;18.40;99.60;;;;;;5114333;28;19930;-80
2020/12/19 09:39:05;;;;;;;;;;;18.40;99.60;;;;;;5114349;28;19919;-80
2020/12/19 09:41:32;;;;;;;;;;;18.40;99.50;;;;;;5114651;28;19911;-79
2020/12/19 09:43:59;;;;;;;;;;;18.50;99.60;;;;;;5114161;28;19923;-80
2020/12/19 09:46:26;;;;;;;;;;;18.50;99.60;;;;;;5110860;28;19911;-81
2020/12/19 09:48:52;;;;;;;;;;;18.60;99.30;;;;;;5116174;28;19920;-79
2020/12/19 09:51:19;;;;;;;;;;;18.70;99.40;;;;;;5116080;28;19912;-80
2020/12/19 09:53:45;;;;;;;;;;;18.80;99.00;;;;;;5115964;28;20358;-82
2020/12/19 09:56:13;;;;;;;;;;;18.90;99.00;;;;;;5115532;28;19907;-82
2020/12/19 09:58:39;;;;;;;;;;;18.90;98.80;;;;;;5116842;28;20366;-80
2020/12/19 10:01:06;;;;;;;;;;;18.90;99.00;;;;;;5116193;27;19964;-81
2020/12/19 10:03:32;;;;;;;;;;;18.80;99.10;;;;;;5114159;28;19970;-79
2020/12/19 10:05:59;;;;;;;;;;;18.80;99.00;;;;;;5116517;28;19908;-80
2020/12/19 10:08:26;;;;;;;;;;;18.80;99.10;;;;;;5115256;28;20055;-80
2020/12/19 10:10:53;;;;;;;;;;;18.80;99.10;;;;;;5116039;28;20266;-80
2020/12/19 10:13:19;;;;;;;;;;;18.80;99.20;;;;;;5115383;28;20022;-80
2020/12/19 10:15:46;;;;;;;;;;;18.80;99.20;;;;;;5103723;28;19908;-80
2020/12/19 10:18:13;;;;;;;;;;;18.80;98.90;;;;;;5114940;28;19919;-78
2020/12/19 10:20:39;;;;;;;;;;;18.70;98.90;;;;;;5115291;28;20223;-79
2020/12/19 10:23:06;;;;;;;;;;;18.60;98.90;;;;;;5115311;28;19918;-78
2020/12/19 10:25:33;;;;;;;;;;;18.60;99.10;;;;;;5115881;28;19908;-79
2020/12/19 10:28:00;;;;;;;;;;;18.70;99.20;;;;;;5115360;28;20368;-78
2020/12/19 10:30:26;;;;;;;;;;;18.70;99.10;;;;;;5116134;28;19908;-78
2020/12/19 10:32:56;;;;;;;;;;;18.70;99.20;;;;;;5115401;28;19977;-79
2020/12/19 10:35:22;;;;;;;;;;;18.70;99.00;;;;;;5115197;28;19969;-78
2020/12/19 10:37:49;;;;;;;;;;;18.70;99.10;;;;;;5115229;28;19912;-79
2020/12/19 10:40:15;;;;;;;;;;;18.80;99.10;;;;;;5115908;28;19914;-78
2020/12/19 10:42:43;;;;;;;;;;;18.80;99.10;;;;;;5115341;28;19907;-79
2020/12/19 10:45:09;;;;;;;;;;;18.80;99.00;;;;;;5115031;28;19908;-79
2020/12/19 10:47:36;;;;;;;;;;;18.80;99.00;;;;;;5114828;28;19912;-79
2020/12/19 10:50:03;;;;;;;;;;;18.80;99.00;;;;;;5115655;28;19998;-78
2020/12/19 10:52:30;;;;;;;;;;;18.80;98.90;;;;;;5115100;28;20356;-79
2020/12/19 10:54:56;;;;;;;;;;;18.80;99.10;;;;;;5114875;28;19945;-78
2020/12/19 10:57:23;;;;;;;;;;;18.80;98.90;;;;;;5115136;28;20000;-78
2020/12/19 10:59:49;;;;;;;;;;;18.80;99.00;;;;;;5115400;28;20032;-78
2020/12/19 11:02:16;;;;;;;;;;;18.80;98.90;;;;;;5114815;28;20018;-78
2020/12/19 11:04:43;;;;;;;;;;;18.70;98.90;;;;;;5114799;27;19911;-78
2020/12/19 11:07:09;;;;;;;;;;;18.70;99.20;;;;;;5115112;27;19919;-80
2020/12/19 11:09:36;;;;;;;;;;;18.60;99.30;;;;;;5117101;27;19907;-79
2020/12/19 11:12:02;;;;;;;;;;;18.50;99.30;;;;;;5135845;27;19930;-80
2020/12/19 11:14:31;;;;;;;;;;;18.50;99.30;;;;;;5114439;27;19971;-79
2020/12/19 11:16:57;;;;;;;;;;;18.50;99.20;;;;;;5114661;28;19912;-78
2020/12/19 11:19:24;;;;;;;;;;;18.50;99.20;;;;;;5114424;28;19957;-78
2020/12/19 11:21:51;;;;;;;;;;;18.40;99.10;;;;;;5115195;28;19908;-78
2020/12/19 11:24:17;;;;;;;;;;;18.40;98.90;;;;;;5114339;28;20380;-79
2020/12/19 11:26:44;;;;;;;;;;;18.40;99.20;;;;;;5114716;28;19912;-79
2020/12/19 11:29:13;;;;;;;;;;;18.40;99.30;;;;;;5113747;28;19912;-79
2020/12/19 11:31:39;;;;;;;;;;;18.40;99.10;;;;;;5114301;28;19912;-79
2020/12/19 11:34:06;;;;;;;;;;;18.40;99.20;;;;;;5113718;28;19961;-78
2020/12/19 11:36:38;;;;;;;;;;;18.30;99.10;;;;;;5114630;28;19908;-79
2020/12/19 11:39:10;;;;;;;;;;;18.40;99.20;;;;;;5114013;28;19916;-80
2020/12/19 11:41:40;;;;;;;;;;;18.30;99.10;;;;;;5094112;28;19963;-79
2020/12/19 11:44:11;;;;;;;;;;;18.40;99.20;;;;;;5093915;28;19953;-78
2020/12/19 11:46:38;;;;;;;;;;;18.40;99.20;;;;;;5110420;28;20393;-80
2020/12/19 11:49:05;;;;;;;;;;;18.40;99.30;;;;;;5114195;28;19911;-79
2020/12/19 11:51:33;;;;;;;;;;;18.30;99.00;;;;;;5114474;27;19978;-79
2020/12/19 11:54:01;;;;;;;;;;;18.30;99.10;;;;;;5114389;28;20366;-78
2020/12/19 11:56:29;;;;;;;;;;;18.30;99.00;;;;;;5112499;28;20416;-79
2020/12/19 11:58:55;;;;;;;;;;;18.40;99.00;;;;;;5112690;28;19919;-79
2020/12/19 12:01:28;;;;;;;;;;;18.40;99.00;;;;;;5113493;28;19918;-80
2020/12/19 12:03:55;;;;;;;;;;;18.40;98.90;;;;;;5114012;28;19923;-78
2020/12/19 12:06:32;;;;;;;;;;;18.30;98.80;;;;;;5113625;28;19908;-78
2020/12/19 12:08:59;;;;;;;;;;;18.30;99.00;;;;;;5113238;28;19911;-79
2020/12/19 12:11:27;;;;;;;;;;;18.30;98.90;;;;;;5113870;28;19939;-78
2020/12/19 12:13:54;;;;;;;;;;;18.30;98.70;;;;;;5114239;28;19990;-79
2020/12/19 12:16:21;;;;;;;;;;;18.30;98.90;;;;;;5113327;28;19912;-79
2020/12/19 12:18:48;;;;;;;;;;;18.30;99.00;;;;;;5113780;28;20263;-79
2020/12/19 12:21:15;;;;;;;;;;;18.30;98.90;;;;;;5113351;28;19912;-78
2020/12/19 12:23:43;;;;;;;;;;;18.40;98.90;;;;;;5101046;28;20003;-80
2020/12/19 12:26:10;;;;;;;;;;;18.40;98.80;;;;;;5113316;28;19997;-78
2020/12/19 12:28:37;;;;;;;;;;;18.40;98.70;;;;;;5113043;28;19922;-79
2020/12/19 12:31:05;;;;;;;;;;;18.40;98.80;;;;;;5113745;28;20277;-80
2020/12/19 12:33:31;;;;;;;;;;;18.40;98.90;;;;;;5113550;28;19919;-80
2020/12/19 12:35:58;;;;;;;;;;;18.40;98.70;;;;;;5113536;28;19908;-80
2020/12/19 12:38:25;;;;;;;;;;;18.40;98.60;;;;;;5112731;28;19942;-79
2020/12/19 12:40:51;;;;;;;;;;;18.40;98.70;;;;;;5113169;28;19912;-81
2020/12/19 12:43:18;;;;;;;;;;;18.40;98.80;;;;;;5112952;28;20419;-80
2020/12/19 12:45:44;;;;;;;;;;;18.50;98.90;;;;;;5113539;28;19912;-81
2020/12/19 12:48:11;;;;;;;;;;;18.50;98.90;;;;;;5112770;28;19911;-79
2020/12/19 12:50:38;;;;;;;;;;;18.40;98.80;;;;;;5110558;28;20012;-79
2020/12/19 12:53:05;;;;;;;;;;;18.40;98.90;;;;;;5098839;28;20019;-79
2020/12/19 12:55:31;;;;;;;;;;;18.50;99.00;;;;;;5113040;28;20378;-81
2020/12/19 12:57:58;;;;;;;;;;;18.40;98.80;;;;;;5112765;28;19912;-84
2020/12/19 13:00:25;;;;;;;;;;;18.40;99.00;;;;;;5111733;28;19916;-82
2020/12/19 13:02:51;;;;;;;;;;;18.40;98.90;;;;;;5112248;28;19976;-82
2020/12/19 13:05:21;;;;;;;;;;;18.40;98.90;;;;;;5112110;28;20120;-83
2020/12/19 13:07:48;;;;;;;;;;;18.40;99.10;;;;;;5112818;28;19916;-83
2020/12/19 13:10:14;;;;;;;;;;;18.30;99.20;;;;;;5113092;28;19912;-82
2020/12/19 13:12:41;;;;;;;;;;;18.30;99.20;;;;;;5113068;28;19955;-83
2020/12/19 13:15:07;;;;;;;;;;;18.30;99.30;;;;;;5112824;28;19915;-83
2020/12/19 13:17:34;;;;;;;;;;;18.30;99.20;;;;;;5112339;28;20316;-83
2020/12/19 13:20:01;;;;;;;;;;;18.30;99.20;;;;;;5113404;28;19951;-83
2020/12/19 13:22:27;;;;;;;;;;;18.40;99.30;;;;;;5113210;28;19908;-82
2020/12/19 13:24:54;;;;;;;;;;;18.30;99.30;;;;;;5127164;27;19911;-83
2020/12/19 13:27:21;;;;;;;;;;;18.40;99.50;;;;;;5112111;28;19965;-83
2020/12/19 13:29:47;;;;;;;;;;;18.40;99.40;;;;;;5112917;28;19912;-83
2020/12/19 13:32:14;;;;;;;;;;;18.40;99.40;;;;;;5112422;28;19964;-82
2020/12/19 13:34:40;;;;;;;;;;;18.40;99.40;;;;;;5113157;28;20000;-83
2020/12/19 13:37:07;;;;;;;;;;;18.40;99.50;;;;;;5128166;27;20326;-83
2020/12/19 13:39:34;;;;;;;;;;;18.40;99.50;;;;;;5112176;28;19921;-84
2020/12/19 13:42:01;;;;;;;;;;;18.40;99.60;;;;;;5112546;28;19961;-82
2020/12/19 13:44:28;;;;;;;;;;;18.40;99.40;;;;;;5111418;28;19915;-82
2020/12/19 13:46:56;;;;;;;;;;;18.40;99.50;;;;;;5112855;28;20390;-83
2020/12/19 13:49:22;;;;;;;;;;;18.40;99.50;;;;;;5112226;28;19908;-83
2020/12/19 13:51:49;;;;;;;;;;;18.40;99.50;;;;;;5113099;28;20359;-82
2020/12/19 13:54:16;;;;;;;;;;;18.40;99.60;;;;;;5112957;28;20281;-82
2020/12/19 13:56:42;;;;;;;;;;;18.40;99.70;;;;;;5114770;28;19942;-83
2020/12/19 13:59:09;;;;;;;;;;;18.50;99.60;;;;;;5115810;28;19916;-83
2020/12/19 14:01:37;;;;;;;;;;;18.40;99.50;;;;;;5114958;27;20291;-83
2020/12/19 14:04:04;;;;;;;;;;;18.40;99.50;;;;;;5116167;28;19926;-83
2020/12/19 14:06:33;;;;;;;;;;;18.40;99.40;;;;;;5116673;27;20034;-83
2020/12/19 14:09:00;;;;;;;;;;;18.40;99.50;;;;;;5116621;28;19950;-83
2020/12/19 14:11:37;;;;;;;;;;;18.40;99.50;;;;;;5115788;28;19947;-83
2020/12/19 14:14:04;;;;;;;;;;;18.40;99.60;;;;;;5116274;28;19973;-83
2020/12/19 14:16:34;;;;;;;;;;;18.30;99.50;;;;;;5116262;28;19914;-82
2020/12/19 14:19:02;;;;;;;;;;;18.40;99.60;;;;;;5116507;28;19911;-82
2020/12/19 14:21:28;;;;;;;;;;;18.30;99.60;;;;;;5116176;28;19908;-83